Time;durP1;ratioP1;P1;durP2;ratioP2;P2;SDS_P1;SDS_P2;PMS_P1;PMS_P2;Temp;Humidity;BMP_temperature;BMP_pressure;BME280_temperature;BME280_humidity;BME280_pressure;Samples;Min_cycle;Max_cycle;Signal;HPM_P1;HPM_P2
2024/01/17 00:00:49;;;;;;;22.65;13.77;;;-1.80;99.90;;;;;;5032461;28;20401;-51
2024/01/17 00:03:14;;;;;;;25.63;13.02;;;-1.80;99.90;;;;;;5032825;28;20018;-49
2024/01/17 00:05:40;;;;;;;26.00;13.52;;;-1.80;99.90;;;;;;5032199;28;20047;-46
2024/01/17 00:08:06;;;;;;;24.95;13.32;;;-1.80;99.90;;;;;;5031159;28;20447;-52
2024/01/17 00:10:31;;;;;;;23.75;13.80;;;-1.90;99.90;;;;;;5032339;28;20033;-47
2024/01/17 00:12:57;;;;;;;21.20;14.20;;;-1.90;99.90;;;;;;5032435;28;20556;-47
2024/01/17 00:15:22;;;;;;;18.98;12.18;;;-1.80;99.90;;;;;;5030805;28;20018;-47
2024/01/17 00:17:48;;;;;;;29.42;13.00;;;-1.80;99.90;;;;;;5031831;28;20075;-50
2024/01/17 00:20:14;;;;;;;23.70;14.20;;;-1.80;99.90;;;;;;5031906;28;20105;-51
2024/01/17 00:22:39;;;;;;;22.17;12.48;;;-1.80;99.90;;;;;;5031917;28;20061;-46
2024/01/17 00:25:08;;;;;;;19.50;13.07;;;-1.80;99.90;;;;;;5031913;28;20080;-50
2024/01/17 00:27:34;;;;;;;20.80;12.90;;;;;;;;;;5031604;28;20048;-46
2024/01/17 00:30:00;;;;;;;26.98;13.00;;;-1.90;99.90;;;;;;5031916;28;20021;-46
2024/01/17 00:32:26;;;;;;;26.80;14.00;;;-1.90;99.90;;;;;;5030433;28;20024;-47
2024/01/17 00:34:51;;;;;;;25.20;12.95;;;-1.90;99.90;;;;;;5031856;28;20103;-53
2024/01/17 00:37:17;;;;;;;28.65;12.57;;;-1.90;99.90;;;;;;5031570;28;20048;-44
2024/01/17 00:39:43;;;;;;;22.60;13.10;;;-1.90;99.90;;;;;;5031852;28;20104;-47
2024/01/17 00:42:08;;;;;;;24.90;12.98;;;-2.00;99.90;;;;;;5031795;28;20108;-45
2024/01/17 00:44:38;;;;;;;20.90;12.25;;;-2.10;99.90;;;;;;5031395;28;20116;-49
2024/01/17 00:47:04;;;;;;;28.67;13.38;;;-2.20;99.90;;;;;;5031452;28;20398;-45
2024/01/17 00:49:29;;;;;;;20.73;12.98;;;-2.40;99.90;;;;;;5031532;28;20067;-47
2024/01/17 00:51:55;;;;;;;30.83;12.55;;;-2.60;99.90;;;;;;5031665;28;20029;-46
2024/01/17 00:54:20;;;;;;;23.92;11.80;;;-2.50;99.90;;;;;;5031410;28;20037;-53
2024/01/17 00:56:46;;;;;;;30.33;12.25;;;-2.50;99.90;;;;;;5031208;28;20100;-48
2024/01/17 00:59:11;;;;;;;23.67;11.98;;;-2.60;99.90;;;;;;5031449;28;20021;-47
2024/01/17 01:01:37;;;;;;;25.70;12.80;;;-2.50;99.90;;;;;;5031314;28;20037;-46
2024/01/17 01:04:02;;;;;;;21.77;10.82;;;-2.60;99.90;;;;;;5031445;28;20559;-53
2024/01/17 01:06:28;;;;;;;23.13;11.75;;;-2.60;99.90;;;;;;5030848;28;20073;-49
2024/01/17 01:08:54;;;;;;;26.70;12.40;;;-2.60;99.90;;;;;;5031458;28;20025;-44
2024/01/17 01:11:19;;;;;;;26.38;11.00;;;-2.60;99.90;;;;;;5031380;28;20029;-50
2024/01/17 01:13:45;;;;;;;17.08;10.82;;;-2.50;99.90;;;;;;5031464;28;20444;-49
2024/01/17 01:16:10;;;;;;;19.00;10.23;;;-2.50;99.90;;;;;;5031141;28;20453;-47
2024/01/17 01:18:36;;;;;;;22.25;11.57;;;-2.50;99.90;;;;;;5029768;28;20129;-46
2024/01/17 01:21:01;;;;;;;18.75;10.55;;;-2.40;99.90;;;;;;5031158;28;20041;-46
2024/01/17 01:23:27;;;;;;;24.17;11.20;;;-2.40;99.90;;;;;;5031155;28;20029;-50
2024/01/17 01:25:53;;;;;;;17.85;10.25;;;-2.50;99.90;;;;;;5031271;28;20033;-44
2024/01/17 01:28:19;;;;;;;20.60;10.80;;;-2.40;99.90;;;;;;5031094;28;20025;-46
2024/01/17 01:30:44;;;;;;;27.13;9.93;;;-2.50;99.90;;;;;;5031166;28;20026;-45
2024/01/17 01:33:10;;;;;;;22.83;10.50;;;-2.60;99.90;;;;;;5031097;28;20060;-49
2024/01/17 01:35:35;;;;;;;18.02;9.85;;;-2.60;99.90;;;;;;5031081;28;20033;-50
2024/01/17 01:38:01;;;;;;;21.88;11.40;;;-2.60;99.90;;;;;;5030792;28;20444;-46
2024/01/17 01:40:26;;;;;;;23.00;10.40;;;-2.50;99.90;;;;;;5031043;28;20053;-47
2024/01/17 01:42:53;;;;;;;17.13;9.43;;;-2.50;99.90;;;;;;5031123;28;20036;-47
2024/01/17 01:45:18;;;;;;;21.30;9.82;;;-2.50;99.90;;;;;;5031047;28;20029;-47
2024/01/17 01:47:44;;;;;;;20.52;9.85;;;-2.50;99.90;;;;;;5030577;28;20033;-48
2024/01/17 01:50:11;;;;;;;24.48;10.25;;;-2.40;99.90;;;;;;5034533;23;20495;-46
2024/01/17 01:52:39;;;;;;;124.82;51.92;;;-2.30;99.90;;;;;;4991804;28;20050;-46
2024/01/17 01:55:06;;;;;;;74.30;35.70;;;-2.30;99.90;;;;;;4992998;28;20111;-44
2024/01/17 01:57:35;;;;;;;20.40;11.40;;;-2.20;99.90;;;;;;4991482;28;20034;-42
2024/01/17 02:00:02;;;;;;;21.63;11.40;;;-2.30;99.90;;;;;;4976241;28;20023;-48
2024/01/17 02:02:28;;;;;;;18.38;10.10;;;-2.30;99.90;;;;;;4972209;28;20111;-45
2024/01/17 02:04:53;;;;;;;23.17;10.32;;;-2.40;99.90;;;;;;4972098;28;20069;-41
2024/01/17 02:07:21;;;;;;;20.00;10.77;;;-2.50;99.90;;;;;;4971929;28;20400;-45
2024/01/17 02:09:48;;;;;;;16.48;10.73;;;-2.50;99.90;;;;;;4971867;28;20030;-45
2024/01/17 02:12:14;;;;;;;21.80;10.25;;;-2.60;99.90;;;;;;4986912;28;20059;-44
2024/01/17 02:14:41;;;;;;;21.05;10.07;;;-2.60;99.90;;;;;;4972005;28;20023;-47
2024/01/17 02:17:08;;;;;;;21.13;9.93;;;-2.60;99.90;;;;;;4971896;28;20114;-44
2024/01/17 02:19:33;;;;;;;18.70;10.80;;;-2.60;99.90;;;;;;4971948;28;20034;-46
2024/01/17 02:21:59;;;;;;;17.80;10.73;;;-2.60;99.90;;;;;;4972035;28;20106;-48
2024/01/17 02:24:24;;;;;;;20.13;9.75;;;-2.70;99.90;;;;;;4972163;28;20542;-48
2024/01/17 02:26:50;;;;;;;19.50;10.13;;;-2.70;99.90;;;;;;4971749;28;20034;-48
2024/01/17 02:29:16;;;;;;;19.85;10.38;;;-2.70;99.90;;;;;;4971792;28;20081;-45
2024/01/17 02:31:43;;;;;;;18.85;9.10;;;-2.60;99.90;;;;;;4975083;28;20239;-49
2024/01/17 02:34:09;;;;;;;16.55;9.48;;;-2.70;99.90;;;;;;4975372;28;20068;-47
2024/01/17 02:36:35;;;;;;;16.75;9.68;;;-2.70;99.90;;;;;;4974938;28;20035;-45
2024/01/17 02:39:00;;;;;;;22.00;10.27;;;-2.70;99.90;;;;;;4975945;28;20381;-45
2024/01/17 02:41:26;;;;;;;13.65;8.40;;;-2.70;99.90;;;;;;4975171;28;20207;-48
2024/01/17 02:43:51;;;;;;;14.73;9.23;;;-2.70;99.90;;;;;;4975478;28;20030;-46
2024/01/17 02:46:17;;;;;;;22.17;10.05;;;-2.70;99.90;;;;;;4974814;28;20106;-41
2024/01/17 02:48:42;;;;;;;20.30;9.70;;;-2.70;99.90;;;;;;4975386;28;20081;-46
2024/01/17 02:51:08;;;;;;;18.42;8.98;;;-2.60;99.90;;;;;;4975334;28;20035;-50
2024/01/17 02:53:33;;;;;;;12.52;9.07;;;-2.50;99.90;;;;;;4975075;28;20081;-45
2024/01/17 02:55:59;;;;;;;22.98;9.80;;;-2.40;99.90;;;;;;4974915;28;20026;-45
2024/01/17 02:58:24;;;;;;;17.48;9.80;;;-2.20;99.90;;;;;;4975116;28;20019;-48
2024/01/17 03:00:50;;;;;;;18.77;9.38;;;-2.30;99.90;;;;;;4975391;28;20031;-45
2024/01/17 03:03:16;;;;;;;24.85;10.05;;;-2.20;99.90;;;;;;4974026;28;20051;-46
2024/01/17 03:05:41;;;;;;;13.57;9.20;;;-2.10;99.90;;;;;;4975114;28;20073;-47
2024/01/17 03:08:08;;;;;;;15.02;9.05;;;-2.10;99.90;;;;;;4974763;28;20086;-48
2024/01/17 03:10:33;;;;;;;19.05;9.45;;;-2.20;99.90;;;;;;4975001;28;20023;-47
2024/01/17 03:12:59;;;;;;;18.20;9.25;;;-2.20;99.90;;;;;;4975539;28;20051;-47
2024/01/17 03:15:25;;;;;;;15.30;9.23;;;-2.20;99.90;;;;;;4974668;28;20062;-47
2024/01/17 03:17:50;;;;;;;17.05;9.60;;;-2.10;99.90;;;;;;4974525;28;20071;-47
2024/01/17 03:20:16;;;;;;;16.15;9.77;;;-2.10;99.90;;;;;;4974391;28;20396;-45
2024/01/17 03:22:41;;;;;;;22.40;11.55;;;-2.20;99.90;;;;;;4974586;28;20039;-48
2024/01/17 03:25:08;;;;;;;20.00;10.32;;;-2.20;99.90;;;;;;4974577;28;20038;-45
2024/01/17 03:28:02;;;;;;;19.05;10.25;;;;;;;;;;4974116;28;20023;-45
2024/01/17 03:30:28;;;;;;;17.33;10.50;;;-2.70;99.90;;;;;;4974520;28;20046;-46
2024/01/17 03:32:53;;;;;;;16.45;10.05;;;-2.80;99.90;;;;;;4974803;28;20065;-42
2024/01/17 03:35:18;;;;;;;15.30;10.52;;;-2.90;99.90;;;;;;4974998;28;20027;-47
2024/01/17 03:37:44;;;;;;;18.95;10.30;;;-3.00;99.90;;;;;;4974134;28;20031;-48
2024/01/17 03:40:10;;;;;;;20.15;9.30;;;-2.80;99.90;;;;;;4973221;28;20077;-48
2024/01/17 03:42:35;;;;;;;15.55;9.85;;;-2.80;99.90;;;;;;4974089;28;20522;-46
2024/01/17 03:45:01;;;;;;;17.15;10.55;;;-2.70;99.90;;;;;;4974536;28;20026;-47
2024/01/17 03:47:26;;;;;;;19.15;9.75;;;-2.70;99.90;;;;;;4973949;28;20069;-45
2024/01/17 03:49:52;;;;;;;18.60;11.23;;;-2.70;99.90;;;;;;4974364;28;20095;-48
2024/01/17 03:52:19;;;;;;;18.58;10.23;;;-2.60;99.90;;;;;;4974029;28;20051;-46
2024/01/17 03:54:44;;;;;;;18.27;9.73;;;-2.60;99.90;;;;;;4974049;28;20054;-48
2024/01/17 03:57:10;;;;;;;17.27;10.35;;;-2.50;99.90;;;;;;4973692;28;20074;-48
2024/01/17 03:59:35;;;;;;;14.90;9.90;;;-2.50;99.90;;;;;;4973842;28;20093;-45
2024/01/17 04:02:01;;;;;;;17.00;8.98;;;-2.50;99.90;;;;;;4973877;28;20496;-45
2024/01/17 04:04:26;;;;;;;15.18;9.60;;;-2.50;99.90;;;;;;4973743;28;20022;-45
2024/01/17 04:06:53;;;;;;;20.67;9.30;;;-2.60;99.90;;;;;;4973335;28;20029;-47
2024/01/17 04:09:19;;;;;;;15.73;9.23;;;-2.60;99.90;;;;;;4973661;28;20440;-46
2024/01/17 04:11:45;;;;;;;19.58;10.00;;;-2.70;99.90;;;;;;4973803;28;20023;-45
2024/01/17 04:14:12;;;;;;;17.70;9.32;;;-2.70;99.90;;;;;;4973713;28;20444;-46
2024/01/17 04:16:37;;;;;;;22.95;10.07;;;-2.80;99.90;;;;;;4973361;28;20035;-48
2024/01/17 04:19:03;;;;;;;18.17;9.75;;;-2.70;99.90;;;;;;4973602;28;20046;-49
2024/01/17 04:21:29;;;;;;;19.88;10.48;;;-2.70;99.90;;;;;;4972245;28;20031;-49
2024/01/17 04:23:55;;;;;;;24.83;9.80;;;-2.70;99.90;;;;;;4973396;28;20397;-51
2024/01/17 04:26:23;;;;;;;17.20;9.88;;;-2.60;99.90;;;;;;4971720;28;20425;-46
2024/01/17 04:28:49;;;;;;;17.30;11.77;;;-2.60;99.90;;;;;;4972026;28;20496;-43
2024/01/17 04:31:26;;;;;;;20.00;10.18;;;-2.50;99.90;;;;;;4973206;28;20034;-43
2024/01/17 04:33:52;;;;;;;19.17;9.93;;;-2.50;99.90;;;;;;4973124;28;20026;-48
2024/01/17 04:36:19;;;;;;;14.10;10.52;;;-2.50;99.90;;;;;;4971690;28;20054;-46
2024/01/17 04:38:45;;;;;;;23.15;10.95;;;-2.30;99.90;;;;;;4987912;28;20430;-49
2024/01/17 04:41:11;;;;;;;17.85;10.95;;;-2.50;99.90;;;;;;4971753;28;20110;-46
2024/01/17 04:43:41;;;;;;;22.42;10.38;;;-2.60;99.90;;;;;;4973016;28;20023;-46
2024/01/17 04:46:12;;;;;;;22.75;10.95;;;-2.70;99.90;;;;;;4972693;28;20015;-47
2024/01/17 04:48:39;;;;;;;16.67;10.48;;;-2.70;99.90;;;;;;4972819;28;20053;-46
2024/01/17 04:51:05;;;;;;;21.70;12.25;;;-2.70;99.90;;;;;;4972789;28;20130;-52
2024/01/17 04:53:32;;;;;;;19.17;10.40;;;-2.80;99.90;;;;;;4971057;28;20118;-46
2024/01/17 04:55:58;;;;;;;20.58;10.70;;;-2.80;99.90;;;;;;4972633;28;20022;-48
2024/01/17 04:58:24;;;;;;;19.35;10.32;;;-2.90;99.90;;;;;;4972772;28;20097;-50
2024/01/17 05:00:49;;;;;;;16.30;10.60;;;-3.00;99.90;;;;;;4971547;28;20141;-46
2024/01/17 05:03:15;;;;;;;13.82;9.98;;;-3.00;99.90;;;;;;4973031;28;20049;-48
2024/01/17 05:05:43;;;;;;;18.73;10.35;;;-3.00;99.90;;;;;;4973011;28;20035;-50
2024/01/17 05:08:09;;;;;;;20.25;9.93;;;-2.90;99.90;;;;;;4972464;28;20081;-47
2024/01/17 05:10:35;;;;;;;17.10;10.88;;;-2.90;99.90;;;;;;4972463;28;20033;-48
2024/01/17 05:13:01;;;;;;;28.92;11.35;;;-2.90;99.90;;;;;;4972673;28;20019;-45
2024/01/17 05:15:26;;;;;;;19.98;10.40;;;-2.90;99.90;;;;;;4971341;28;20050;-45
2024/01/17 05:17:52;;;;;;;19.65;10.48;;;-3.00;99.90;;;;;;4970904;28;20085;-44
2024/01/17 05:20:17;;;;;;;19.25;10.43;;;-3.10;99.90;;;;;;4971258;28;20030;-44
2024/01/17 05:22:43;;;;;;;17.02;10.02;;;-3.20;99.90;;;;;;4972554;28;20110;-45
2024/01/17 05:25:11;;;;;;;24.60;10.45;;;-3.20;99.90;;;;;;4972716;28;20031;-45
2024/01/17 05:27:37;;;;;;;20.58;9.82;;;-3.20;99.90;;;;;;4972113;28;20054;-46
2024/01/17 05:30:05;;;;;;;20.10;9.90;;;-3.20;99.90;;;;;;4972919;28;20031;-47
2024/01/17 05:32:30;;;;;;;24.55;11.60;;;-3.20;99.90;;;;;;4972288;28;20488;-46
2024/01/17 05:34:56;;;;;;;19.27;11.10;;;-3.20;99.90;;;;;;4972455;28;20027;-50
2024/01/17 05:37:23;;;;;;;20.05;11.75;;;-3.40;99.90;;;;;;4972143;28;20030;-44
2024/01/17 05:39:49;;;;;;;27.42;11.93;;;-3.40;99.90;;;;;;4972350;28;20508;-48
2024/01/17 05:42:14;;;;;;;14.73;9.45;;;-3.60;99.90;;;;;;4972423;28;20042;-49
2024/01/17 05:44:40;;;;;;;28.98;10.68;;;-3.60;99.90;;;;;;4972377;28;20395;-43
2024/01/17 05:47:05;;;;;;;20.35;10.65;;;-3.50;99.90;;;;;;4971845;28;20045;-46
2024/01/17 05:49:33;;;;;;;22.25;10.98;;;-3.50;99.90;;;;;;4970760;28;20435;-45
2024/01/17 05:51:58;;;;;;;22.35;10.98;;;-3.50;99.90;;;;;;4972324;28;20033;-47
2024/01/17 05:54:24;;;;;;;18.52;11.43;;;-3.50;99.90;;;;;;4972288;28;20050;-44
2024/01/17 05:56:49;;;;;;;17.92;10.13;;;-3.60;99.90;;;;;;4972015;28;20038;-46
2024/01/17 05:59:15;;;;;;;17.60;12.10;;;-3.60;99.90;;;;;;4972173;28;20027;-47
2024/01/17 06:01:41;;;;;;;21.70;10.85;;;-3.60;99.90;;;;;;4970834;28;20034;-48
2024/01/17 06:04:06;;;;;;;21.58;10.70;;;-3.50;99.90;;;;;;4972154;28;20058;-46
2024/01/17 06:06:32;;;;;;;18.08;12.02;;;-3.40;99.90;;;;;;4975051;28;20404;-44
2024/01/17 06:08:58;;;;;;;20.45;11.85;;;-3.30;99.90;;;;;;4975653;28;20023;-44
2024/01/17 06:11:23;;;;;;;15.93;9.88;;;-3.10;99.90;;;;;;4974258;28;20027;-46
2024/01/17 06:13:49;;;;;;;18.35;10.98;;;-3.00;99.90;;;;;;4975581;28;20027;-42
2024/01/17 06:16:14;;;;;;;20.60;10.90;;;-2.90;99.90;;;;;;4975160;28;20114;-40
2024/01/17 06:18:40;;;;;;;15.55;9.57;;;-2.90;99.90;;;;;;4975565;28;20029;-45
2024/01/17 06:21:05;;;;;;;18.30;10.27;;;-2.80;99.90;;;;;;4974227;28;20110;-44
2024/01/17 06:23:31;;;;;;;20.77;11.05;;;-2.70;99.90;;;;;;4975630;28;20023;-44
2024/01/17 06:25:57;;;;;;;17.70;10.68;;;-2.60;99.90;;;;;;4975317;28;20404;-40
2024/01/17 06:28:22;;;;;;;18.85;11.30;;;-2.40;99.90;;;;;;4975279;28;20050;-44
2024/01/17 06:30:48;;;;;;;21.52;11.73;;;-2.30;99.90;;;;;;4975282;28;20019;-44
2024/01/17 06:33:13;;;;;;;17.48;10.50;;;-2.20;99.90;;;;;;4975366;28;20378;-43
2024/01/17 06:35:39;;;;;;;29.48;11.70;;;-2.00;99.90;;;;;;4975907;28;20019;-46
2024/01/17 06:38:05;;;;;;;18.70;10.23;;;-1.90;99.90;;;;;;4975158;28;20031;-46
2024/01/17 06:40:30;;;;;;;14.70;10.07;;;-1.80;99.90;;;;;;4975374;28;20062;-51
2024/01/17 06:42:56;;;;;;;19.95;12.05;;;-1.70;99.90;;;;;;4975788;28;20034;-43
2024/01/17 06:45:21;;;;;;;20.23;11.18;;;-1.70;99.90;;;;;;4975211;28;20035;-45
2024/01/17 06:47:47;;;;;;;18.75;10.05;;;-1.60;99.90;;;;;;4974957;28;20019;-47
2024/01/17 06:50:14;;;;;;;17.10;9.73;;;-1.60;99.90;;;;;;4973913;28;20122;-47
2024/01/17 06:52:39;;;;;;;20.88;11.45;;;-1.60;99.90;;;;;;4975203;28;20027;-44
2024/01/17 06:55:05;;;;;;;16.20;10.55;;;-1.50;99.90;;;;;;4975207;28;20531;-47
2024/01/17 06:57:31;;;;;;;15.82;10.07;;;-1.50;99.90;;;;;;4974844;28;20054;-43
2024/01/17 06:59:56;;;;;;;18.88;10.85;;;-1.40;99.90;;;;;;4973698;28;20098;-44
2024/01/17 07:02:22;;;;;;;20.83;11.88;;;-1.40;99.90;;;;;;4975105;28;20027;-43
2024/01/17 07:04:47;;;;;;;15.45;10.48;;;-1.50;99.90;;;;;;4973969;28;20022;-49
2024/01/17 07:07:13;;;;;;;18.08;10.55;;;-1.50;99.90;;;;;;4974569;28;20054;-46
2024/01/17 07:09:39;;;;;;;17.02;11.52;;;-1.60;99.90;;;;;;4974866;28;20026;-42
2024/01/17 07:12:05;;;;;;;23.05;12.25;;;-1.60;99.90;;;;;;4974916;28;20495;-46
2024/01/17 07:14:30;;;;;;;17.88;11.02;;;-1.60;99.90;;;;;;4974468;28;20082;-50
2024/01/17 07:16:57;;;;;;;23.40;12.55;;;-1.50;99.90;;;;;;4974150;28;20511;-46
2024/01/17 07:19:22;;;;;;;23.27;11.57;;;-1.50;99.90;;;;;;4974855;28;20027;-42
2024/01/17 07:21:48;;;;;;;25.33;11.18;;;-1.70;99.90;;;;;;4974715;28;20030;-48
2024/01/17 07:24:13;;;;;;;23.23;11.77;;;-1.90;99.90;;;;;;4974591;28;20081;-48
2024/01/17 07:26:39;;;;;;;16.25;11.10;;;-2.00;99.90;;;;;;4972790;28;20023;-44
2024/01/17 07:29:05;;;;;;;15.35;10.95;;;-2.00;99.90;;;;;;4974365;28;20085;-46
2024/01/17 07:31:31;;;;;;;21.80;10.90;;;-2.00;99.90;;;;;;4974478;28;20027;-46
2024/01/17 07:33:56;;;;;;;15.48;10.25;;;-2.00;99.90;;;;;;4974661;28;20061;-47
2024/01/17 07:36:22;;;;;;;25.02;10.82;;;-1.90;99.90;;;;;;4972821;28;20455;-45
2024/01/17 07:38:48;;;;;;;17.30;10.70;;;-1.80;99.90;;;;;;4974606;28;20030;-46
2024/01/17 07:41:14;;;;;;;20.20;11.32;;;-1.80;99.90;;;;;;4974596;28;20015;-44
2024/01/17 07:43:39;;;;;;;21.10;11.93;;;-1.90;99.90;;;;;;4973211;28;20503;-44
2024/01/17 07:46:05;;;;;;;23.08;11.98;;;-1.90;99.90;;;;;;4974452;28;20522;-45
2024/01/17 07:48:31;;;;;;;18.88;11.40;;;-2.00;99.90;;;;;;4974493;28;20158;-50
2024/01/17 07:50:57;;;;;;;25.50;12.20;;;-2.00;99.90;;;;;;5012895;23;20144;-51
2024/01/17 07:53:24;;;;;;;15.77;11.43;;;-2.00;99.90;;;;;;5013716;28;20022;-48
2024/01/17 07:55:49;;;;;;;20.48;11.60;;;-2.10;99.90;;;;;;5002022;28;20388;-54
2024/01/17 07:58:16;;;;;;;19.33;11.27;;;-2.10;99.90;;;;;;4993574;28;20166;-46
2024/01/17 08:00:41;;;;;;;22.45;12.40;;;-2.10;99.90;;;;;;5009742;28;20543;-47
2024/01/17 08:03:07;;;;;;;20.63;10.85;;;-2.10;99.90;;;;;;5013609;28;20068;-49
2024/01/17 08:05:33;;;;;;;21.60;11.57;;;-2.00;99.90;;;;;;5013018;28;20112;-53
2024/01/17 08:07:59;;;;;;;18.70;10.63;;;-2.00;99.90;;;;;;5012713;28;20384;-49
2024/01/17 08:10:25;;;;;;;27.50;13.02;;;-1.90;99.90;;;;;;5028376;28;20081;-49
2024/01/17 08:12:50;;;;;;;28.52;11.13;;;-1.80;99.90;;;;;;5012667;28;20037;-48
2024/01/17 08:15:16;;;;;;;24.35;11.57;;;-1.80;99.90;;;;;;5013019;28;20041;-53
2024/01/17 08:17:41;;;;;;;23.63;12.13;;;-1.70;99.90;;;;;;5013084;28;20549;-48
2024/01/17 08:20:07;;;;;;;20.58;11.75;;;-1.70;99.90;;;;;;5013053;28;20018;-48
2024/01/17 08:22:34;;;;;;;18.55;11.82;;;-1.70;99.90;;;;;;5013371;28;20483;-51
2024/01/17 08:24:59;;;;;;;19.67;11.15;;;-1.70;99.90;;;;;;5012870;28;20026;-51
2024/01/17 08:27:25;;;;;;;25.70;12.25;;;-1.60;99.90;;;;;;5011623;28;20079;-47
2024/01/17 08:29:50;;;;;;;21.15;11.27;;;-1.70;99.90;;;;;;5012635;28;20123;-50
2024/01/17 08:32:16;;;;;;;22.30;11.88;;;-1.60;99.90;;;;;;5012595;28;20013;-50
2024/01/17 08:34:41;;;;;;;20.67;11.30;;;-1.60;99.90;;;;;;5013326;28;20541;-52
2024/01/17 08:37:07;;;;;;;24.75;11.25;;;-1.50;99.90;;;;;;5013999;28;20034;-50
2024/01/17 08:39:32;;;;;;;22.92;11.45;;;-1.50;99.90;;;;;;5014551;28;20025;-51
2024/01/17 08:42:00;;;;;;;19.98;10.55;;;-1.40;99.90;;;;;;5013791;28;20034;-52
2024/01/17 08:44:26;;;;;;;18.33;10.90;;;-1.30;99.90;;;;;;5013996;28;20060;-51
2024/01/17 08:46:52;;;;;;;23.35;11.38;;;-1.30;99.90;;;;;;5013341;28;20022;-55
2024/01/17 08:49:18;;;;;;;25.45;13.05;;;-1.30;99.90;;;;;;5013227;28;20021;-50
2024/01/17 08:51:46;;;;;;;25.55;13.52;;;-1.30;99.90;;;;;;5011871;28;20041;-52
2024/01/17 08:54:12;;;;;;;25.67;12.23;;;-1.30;99.90;;;;;;5013253;28;20022;-52
2024/01/17 08:56:37;;;;;;;24.73;14.27;;;-1.20;99.90;;;;;;5012071;28;20540;-56
2024/01/17 08:59:03;;;;;;;29.27;13.55;;;-1.30;99.90;;;;;;5012132;28;20036;-50
2024/01/17 09:01:28;;;;;;;26.45;13.77;;;-1.40;99.90;;;;;;5012396;28;20474;-47
2024/01/17 09:03:54;;;;;;;21.00;14.50;;;-1.30;99.90;;;;;;5011025;28;20040;-54
2024/01/17 09:06:19;;;;;;;29.30;14.63;;;-1.20;99.90;;;;;;5012254;28;20030;-52
2024/01/17 09:08:45;;;;;;;27.63;15.05;;;-1.20;99.90;;;;;;5012068;28;20032;-49
2024/01/17 09:11:11;;;;;;;24.77;13.52;;;-1.00;99.90;;;;;;5012212;28;20034;-49
2024/01/17 09:13:37;;;;;;;28.08;15.85;;;-1.10;99.90;;;;;;5011023;28;20032;-49
2024/01/17 09:16:03;;;;;;;27.63;14.85;;;-1.00;99.90;;;;;;5012258;28;20034;-47
2024/01/17 09:18:28;;;;;;;26.85;13.95;;;-1.00;99.90;;;;;;5012149;28;20045;-51
2024/01/17 09:20:53;;;;;;;30.83;16.08;;;-0.90;99.90;;;;;;5012198;28;20070;-48
2024/01/17 09:23:19;;;;;;;27.30;15.48;;;;;;;;;;5011955;28;20487;-47
2024/01/17 09:25:45;;;;;;;23.33;13.35;;;;;;;;;;5011620;28;20026;-48
2024/01/17 09:28:11;;;;;;;25.10;15.02;;;;;;;;;;5011294;28;20538;-48
2024/01/17 09:30:38;;;;;;;26.40;14.38;;;;;;;;;;5010467;28;20037;-52
2024/01/17 09:33:03;;;;;;;26.17;14.30;;;-0.10;99.90;;;;;;5012051;28;20026;-44
2024/01/17 09:35:32;;;;;;;25.58;15.63;;;-0.70;99.90;;;;;;5011894;28;20510;-51
2024/01/17 09:37:58;;;;;;;30.25;15.35;;;-0.80;99.90;;;;;;5011243;28;20072;-49
2024/01/17 09:40:23;;;;;;;24.00;15.55;;;-0.80;99.90;;;;;;5014661;28;20479;-51
2024/01/17 09:42:50;;;;;;;22.48;14.23;;;-0.70;99.90;;;;;;5015898;28;20037;-51
2024/01/17 09:45:17;;;;;;;24.80;14.10;;;-0.70;99.90;;;;;;5015703;28;20084;-48
2024/01/17 09:47:44;;;;;;;28.42;14.40;;;-0.80;99.90;;;;;;5013963;28;20458;-49
2024/01/17 09:50:10;;;;;;;23.00;13.80;;;-0.90;99.90;;;;;;5015627;28;20058;-52
2024/01/17 09:52:39;;;;;;;29.38;13.77;;;-0.90;99.90;;;;;;5015533;28;20018;-51
2024/01/17 09:55:06;;;;;;;23.17;13.13;;;-0.90;99.90;;;;;;5015267;28;20030;-47
2024/01/17 09:57:37;;;;;;;24.27;13.50;;;-0.90;99.90;;;;;;5015129;28;20372;-48
2024/01/17 10:00:08;;;;;;;26.00;14.40;;;-0.80;99.90;;;;;;5015237;28;20394;-50
2024/01/17 10:02:36;;;;;;;29.10;12.98;;;-0.70;99.90;;;;;;5015506;28;20029;-51
2024/01/17 10:05:04;;;;;;;20.92;13.20;;;-0.80;99.90;;;;;;5015338;28;20084;-51
2024/01/17 10:07:29;;;;;;;22.65;12.70;;;-0.80;99.90;;;;;;5014899;28;20117;-48
2024/01/17 10:09:55;;;;;;;21.98;13.50;;;-0.80;99.90;;;;;;5015277;28;20105;-50
2024/01/17 10:12:21;;;;;;;26.08;13.60;;;-0.80;99.90;;;;;;5015127;28;20112;-48
2024/01/17 10:14:47;;;;;;;27.35;14.77;;;-0.80;99.90;;;;;;5015093;28;20079;-53
2024/01/17 10:17:12;;;;;;;23.10;13.95;;;-0.70;99.90;;;;;;5014644;28;20088;-53
2024/01/17 10:19:39;;;;;;;26.45;14.13;;;;;;;;;;5015133;28;20490;-51
2024/01/17 10:22:09;;;;;;;21.73;12.32;;;;;;;;;;5014654;28;20021;-50
2024/01/17 10:24:36;;;;;;;20.77;12.65;;;;;;;;;;5014965;28;20025;-54
2024/01/17 10:27:02;;;;;;;22.25;13.00;;;;;;;;;;5014454;28;20029;-48
2024/01/17 10:29:30;;;;;;;27.40;13.52;;;-0.60;99.90;;;;;;5014807;28;20042;-51
2024/01/17 10:31:59;;;;;;;26.77;14.35;;;-0.70;99.90;;;;;;5014813;28;20145;-49
2024/01/17 10:34:31;;;;;;;17.35;12.70;;;-0.70;99.90;;;;;;5014769;28;20462;-53
2024/01/17 10:36:57;;;;;;;20.23;13.65;;;-0.80;99.90;;;;;;5014330;28;20510;-56
2024/01/17 10:39:25;;;;;;;29.27;15.43;;;-0.80;99.90;;;;;;5014566;28;20030;-48
2024/01/17 10:41:54;;;;;;;19.10;12.95;;;-0.80;99.90;;;;;;5014694;28;20101;-50
2024/01/17 10:44:27;;;;;;;24.70;13.98;;;-0.80;99.90;;;;;;5014838;28;20026;-48
2024/01/17 10:46:54;;;;;;;19.55;11.77;;;-0.80;99.90;;;;;;5014251;28;20057;-45
2024/01/17 10:49:21;;;;;;;22.33;13.85;;;-0.60;99.90;;;;;;5014616;28;20053;-50
2024/01/17 10:52:02;;;;;;;24.10;14.23;;;-0.60;99.90;;;;;;5013479;28;20030;-45
2024/01/17 10:54:36;;;;;;;26.10;14.60;;;-0.50;99.90;;;;;;5014356;28;20018;-50
2024/01/17 10:57:07;;;;;;;24.50;13.88;;;-0.50;99.90;;;;;;5012395;28;20423;-51
2024/01/17 10:59:33;;;;;;;28.05;14.63;;;-0.40;99.90;;;;;;5012533;28;20030;-51
2024/01/17 11:01:59;;;;;;;87.85;46.90;;;-0.30;99.90;;;;;;5014113;28;20153;-48
2024/01/17 11:04:35;;;;;;;67.70;37.67;;;-0.30;99.90;;;;;;5014283;28;20064;-49
2024/01/17 11:07:02;;;;;;;128.50;52.08;;;-0.20;99.90;;;;;;5013859;28;20402;-47
2024/01/17 11:09:29;;;;;;;29.48;16.80;;;-0.20;99.90;;;;;;5013940;28;20026;-48
2024/01/17 11:11:57;;;;;;;22.10;14.05;;;-0.20;99.90;;;;;;5013743;28;20073;-53
2024/01/17 11:14:25;;;;;;;23.65;14.77;;;0.00;99.90;;;;;;5013568;28;20014;-53
2024/01/17 11:16:52;;;;;;;25.08;14.48;;;0.00;99.90;;;;;;5013274;28;20030;-50
2024/01/17 11:19:19;;;;;;;23.48;14.63;;;0.00;99.90;;;;;;5013813;28;20076;-46
2024/01/17 11:21:45;;;;;;;28.83;14.55;;;-0.10;99.90;;;;;;5013610;28;20105;-51
2024/01/17 11:24:16;;;;;;;25.45;14.38;;;-0.10;99.90;;;;;;5013730;28;20117;-55
2024/01/17 11:26:59;;;;;;;28.80;15.27;;;0.00;99.90;;;;;;5012125;28;20490;-48
2024/01/17 11:29:59;;;;;;;27.20;15.43;;;0.10;99.90;;;;;;5012314;28;20054;-53
2024/01/17 11:32:50;;;;;;;27.08;15.43;;;0.10;99.90;;;;;;5013375;28;20030;-53
2024/01/17 11:35:43;;;;;;;23.83;14.82;;;0.20;99.90;;;;;;5013544;28;20026;-54
2024/01/17 11:38:12;;;;;;;31.23;15.65;;;0.20;99.90;;;;;;5013077;28;20025;-51
2024/01/17 11:40:39;;;;;;;26.25;14.88;;;0.30;99.90;;;;;;5012152;28;20033;-49
2024/01/17 11:43:04;;;;;;;27.85;16.40;;;0.40;99.90;;;;;;5013615;28;20026;-50
2024/01/17 11:45:30;;;;;;;34.22;16.75;;;0.40;99.90;;;;;;5012701;28;20022;-52
2024/01/17 11:47:55;;;;;;;30.80;17.10;;;0.40;99.90;;;;;;5013546;28;20395;-49
2024/01/17 11:50:22;;;;;;;22.23;15.00;;;0.30;99.90;;;;;;5012070;28;20511;-50
2024/01/17 11:52:48;;;;;;;21.20;13.65;;;0.20;99.90;;;;;;5013550;28;20048;-48
2024/01/17 11:55:15;;;;;;;29.77;15.50;;;0.20;99.90;;;;;;5013285;28;20044;-51
2024/01/17 11:57:41;;;;;;;28.75;16.00;;;0.40;99.90;;;;;;5013246;28;20033;-48
2024/01/17 12:00:18;;;;;;;24.83;16.70;;;0.30;99.90;;;;;;5013725;28;20394;-49
2024/01/17 12:02:44;;;;;;;27.40;16.63;;;0.40;99.90;;;;;;5013176;28;20022;-46
2024/01/17 12:05:11;;;;;;;29.88;16.73;;;0.30;99.90;;;;;;5014646;28;20081;-53
2024/01/17 12:07:49;;;;;;;26.98;17.15;;;0.30;99.90;;;;;;5011655;28;20038;-54
2024/01/17 12:10:14;;;;;;;26.27;16.35;;;0.20;99.90;;;;;;5012445;28;20032;-49
2024/01/17 12:12:44;;;;;;;25.55;15.85;;;0.20;99.90;;;;;;5013123;28;20112;-51
2024/01/17 12:15:10;;;;;;;30.00;16.90;;;0.20;99.90;;;;;;5012374;28;20026;-48
2024/01/17 12:17:38;;;;;;;30.02;17.08;;;0.30;99.90;;;;;;5013305;28;20095;-50
2024/01/17 12:20:07;;;;;;;29.58;17.02;;;0.20;99.90;;;;;;5013091;28;20086;-49
2024/01/17 12:22:32;;;;;;;26.38;16.65;;;0.20;99.90;;;;;;5012762;28;20116;-50
2024/01/17 12:24:58;;;;;;;28.85;17.95;;;0.30;99.90;;;;;;5009551;28;20030;-49
2024/01/17 12:27:24;;;;;;;29.38;17.48;;;0.30;99.90;;;;;;5010283;28;20022;-53
2024/01/17 12:29:54;;;;;;;29.58;17.95;;;0.20;99.90;;;;;;5012713;28;20363;-49